createdAt,value
2018-06-01T00:00:39.177Z,90.70
2018-06-01T00:03:06.701Z,90.70
2018-06-01T00:05:34.265Z,90.70
2018-06-01T00:08:01.803Z,90.70
2018-06-01T00:10:30.113Z,90.80
2018-06-01T00:12:57.678Z,90.70
2018-06-01T00:15:25.213Z,90.50
2018-06-01T00:17:53.525Z,90.50
2018-06-01T00:20:21.039Z,90.50
2018-06-01T00:22:48.656Z,90.50
2018-06-01T00:25:16.218Z,90.50
2018-06-01T00:27:43.729Z,90.40
2018-06-01T00:30:11.255Z,90.20
2018-06-01T00:32:38.779Z,90.20
2018-06-01T00:35:07.095Z,90.10
2018-06-01T00:37:34.605Z,90.10
2018-06-01T00:40:02.129Z,90.10
2018-06-01T00:42:29.657Z,90.20
2018-06-01T00:44:57.925Z,90.40
2018-06-01T00:47:25.455Z,90.40
2018-06-01T00:49:52.988Z,90.50
2018-06-01T00:52:20.533Z,90.20
2018-06-01T00:55:00.636Z,88.80
2018-06-01T00:57:28.176Z,88.60
2018-06-01T00:59:55.700Z,88.20
2018-06-01T01:02:23.979Z,87.70
2018-06-01T01:04:52.262Z,87.90
2018-06-01T01:07:20.550Z,87.20
2018-06-01T01:09:48.838Z,87.10
2018-06-01T01:12:17.137Z,87.10
2018-06-01T01:14:44.701Z,87.10
2018-06-01T01:17:12.266Z,87.00
2018-06-01T01:19:39.794Z,87.20
2018-06-01T01:22:07.329Z,87.20
2018-06-01T01:24:34.856Z,88.10
2018-06-01T01:27:02.379Z,87.50
2018-06-01T01:29:29.892Z,87.50
2018-06-01T01:31:57.434Z,87.70
2018-06-01T01:34:24.950Z,87.50
2018-06-01T01:36:52.487Z,87.50
2018-06-01T01:39:20.015Z,87.80
2018-06-01T01:41:48.290Z,88.40
2018-06-01T01:44:16.600Z,88.60
2018-06-01T01:46:44.115Z,88.60
2018-06-01T01:49:11.730Z,88.90
2018-06-01T01:51:39.262Z,89.20
2018-06-01T01:54:07.547Z,89.70
2018-06-01T01:56:35.958Z,89.60
2018-06-01T01:59:03.470Z,89.60
2018-06-01T02:01:31.091Z,89.50
2018-06-01T02:03:58.602Z,89.30
2018-06-01T02:06:26.126Z,89.50
2018-06-01T02:08:53.680Z,89.40
2018-06-01T02:11:21.247Z,89.20
2018-06-01T02:13:48.806Z,89.30
2018-06-01T02:16:16.370Z,89.60
2018-06-01T02:18:43.880Z,89.50
2018-06-01T02:21:11.408Z,89.50
2018-06-01T02:23:38.924Z,89.60
2018-06-01T02:26:06.458Z,89.80
2018-06-01T02:28:33.984Z,90.00
2018-06-01T02:31:01.494Z,90.00
2018-06-01T02:33:29.018Z,90.10
2018-06-01T02:35:56.529Z,90.10
2018-06-01T02:38:24.057Z,90.10
2018-06-01T02:40:51.571Z,90.10
2018-06-01T02:43:19.133Z,90.20
2018-06-01T02:45:46.643Z,90.30
2018-06-01T02:48:14.155Z,90.40
2018-06-01T02:50:41.689Z,90.00
2018-06-01T02:53:09.193Z,89.90
2018-06-01T02:55:37.509Z,90.10
2018-06-01T02:58:05.020Z,89.70
2018-06-01T03:00:32.564Z,89.50
2018-06-01T03:03:00.072Z,89.60
2018-06-01T03:05:28.381Z,89.10
2018-06-01T03:07:55.899Z,89.10
2018-06-01T03:10:23.401Z,88.90
2018-06-01T03:12:50.918Z,88.20
2018-06-01T03:15:19.932Z,87.80
2018-06-01T03:17:48.354Z,87.60
2018-06-01T03:20:15.877Z,87.50
2018-06-01T03:22:43.488Z,87.40
2018-06-01T03:25:11.006Z,87.30
2018-06-01T03:27:38.518Z,87.60
2018-06-01T03:30:06.038Z,87.00
2018-06-01T03:32:34.314Z,87.30
2018-06-01T03:35:01.846Z,86.70
2018-06-01T03:37:29.350Z,86.70
2018-06-01T03:39:57.632Z,86.30
2018-06-01T03:42:25.923Z,86.50
2018-06-01T03:44:54.199Z,86.30
2018-06-01T03:47:22.489Z,86.10
2018-06-01T03:49:50.786Z,86.40
2018-06-01T03:52:18.322Z,86.20
2018-06-01T03:54:46.631Z,86.60
2018-06-01T03:57:14.158Z,86.60
2018-06-01T03:59:41.691Z,86.90
2018-06-01T04:02:09.198Z,86.70
2018-06-01T04:04:37.607Z,87.10
2018-06-01T04:07:05.111Z,87.10
2018-06-01T04:09:32.644Z,87.10
2018-06-01T04:12:00.219Z,86.90
2018-06-01T04:14:27.744Z,86.90
2018-06-01T04:16:56.028Z,87.10
2018-06-01T04:19:23.542Z,87.00
2018-06-01T04:21:51.085Z,86.80
2018-06-01T04:24:18.595Z,87.10
2018-06-01T04:26:46.871Z,87.30
2018-06-01T04:29:14.392Z,86.60
2018-06-01T04:31:41.899Z,86.80
2018-06-01T04:34:10.202Z,86.10
2018-06-01T04:36:38.502Z,86.80
2018-06-01T04:39:06.028Z,86.70
2018-06-01T04:41:33.558Z,86.50
2018-06-01T04:44:01.066Z,86.70
2018-06-01T04:46:29.374Z,87.10
2018-06-01T04:48:56.909Z,87.10
2018-06-01T04:51:25.210Z,87.10
2018-06-01T04:53:52.791Z,87.00
2018-06-01T04:56:20.302Z,87.00
2018-06-01T04:58:47.836Z,86.80
2018-06-01T05:01:15.349Z,87.20
2018-06-01T05:03:43.660Z,87.10
2018-06-01T05:06:11.170Z,87.10
2018-06-01T05:08:38.689Z,87.50
2018-06-01T05:11:06.250Z,87.00
2018-06-01T05:13:33.765Z,87.70
2018-06-01T05:16:01.296Z,87.40
2018-06-01T05:18:28.837Z,87.70
2018-06-01T05:20:56.369Z,87.40
2018-06-01T05:23:24.655Z,88.00
2018-06-01T05:25:52.940Z,88.30
2018-06-01T05:28:21.352Z,88.20
2018-06-01T05:30:48.865Z,88.10
2018-06-01T05:33:16.478Z,87.50
2018-06-01T05:35:43.992Z,88.10
2018-06-01T05:38:11.527Z,87.80
2018-06-01T05:40:39.030Z,88.30
2018-06-01T05:43:06.576Z,88.30
2018-06-01T05:45:34.088Z,86.60
2018-06-01T05:48:01.614Z,87.10
2018-06-01T05:50:29.148Z,86.30
2018-06-01T05:52:56.660Z,86.80
2018-06-01T05:55:24.974Z,86.00
2018-06-01T05:57:52.487Z,86.00
2018-06-01T06:00:20.100Z,85.90
2018-06-01T06:02:47.620Z,85.70
2018-06-01T06:05:15.164Z,86.50
2018-06-01T06:07:42.674Z,85.60
2018-06-01T06:10:11.073Z,85.10
2018-06-01T06:12:38.598Z,85.10
2018-06-01T06:15:06.115Z,85.40
2018-06-01T06:17:33.655Z,86.40
2018-06-01T06:20:01.167Z,86.20
2018-06-01T06:22:28.705Z,85.00
2018-06-01T06:24:56.215Z,85.40
2018-06-01T06:27:23.731Z,84.10
2018-06-01T06:29:51.253Z,84.50
2018-06-01T06:32:19.563Z,84.00
2018-06-01T06:34:47.091Z,84.00
2018-06-01T06:37:15.415Z,83.90
2018-06-01T06:39:42.972Z,83.90
2018-06-01T06:42:10.480Z,83.00
2018-06-01T06:44:38.102Z,82.90
2018-06-01T06:47:05.606Z,83.40
2018-06-01T06:49:33.115Z,83.50
2018-06-01T06:52:01.417Z,82.50
2018-06-01T06:54:28.930Z,82.50
2018-06-01T06:56:56.475Z,80.90
2018-06-01T06:59:24.010Z,81.50
2018-06-01T07:01:51.534Z,81.50
2018-06-01T07:04:19.807Z,79.20
2018-06-01T07:06:47.345Z,79.10
2018-06-01T07:09:14.851Z,78.70
2018-06-01T07:11:43.133Z,78.80
2018-06-01T07:14:11.429Z,78.20
2018-06-01T07:16:39.000Z,78.20
2018-06-01T07:19:06.571Z,78.80
2018-06-01T07:21:34.127Z,79.00
2018-06-01T07:24:01.678Z,79.20
2018-06-01T07:26:29.189Z,79.00
2018-06-01T07:28:56.727Z,79.20
2018-06-01T07:31:24.236Z,79.60
2018-06-01T07:33:51.748Z,79.50
2018-06-01T07:36:19.271Z,78.70
2018-06-01T07:38:46.836Z,78.70
2018-06-01T07:41:14.334Z,80.10
2018-06-01T07:43:41.850Z,77.70
2018-06-01T07:46:09.388Z,78.50
2018-06-01T07:48:36.909Z,78.00
2018-06-01T07:51:05.187Z,76.70
2018-06-01T07:53:33.568Z,76.60
2018-06-01T07:56:01.860Z,76.60
2018-06-01T07:58:29.388Z,76.50
2018-06-01T08:00:56.911Z,77.10
2018-06-01T08:03:24.571Z,76.90
2018-06-01T08:05:52.090Z,76.90
2018-06-01T08:08:19.606Z,77.20
2018-06-01T08:10:47.152Z,77.70
2018-06-01T08:13:15.565Z,76.40
2018-06-01T08:15:43.095Z,78.00
2018-06-01T08:18:10.675Z,77.80
2018-06-01T08:20:38.202Z,76.50
2018-06-01T08:23:05.725Z,78.90
2018-06-01T08:25:33.242Z,76.40
2018-06-01T08:28:01.549Z,77.70
2018-06-01T08:30:29.060Z,77.60
2018-06-01T08:32:56.674Z,77.40
2018-06-01T08:35:24.195Z,76.50
2018-06-01T08:37:51.721Z,76.40
2018-06-01T08:40:19.264Z,76.50
2018-06-01T08:42:46.780Z,77.40
2018-06-01T08:45:14.293Z,76.70
2018-06-01T08:47:41.823Z,75.50
2018-06-01T08:50:10.096Z,78.30
2018-06-01T08:52:37.709Z,77.80
2018-06-01T08:55:05.227Z,78.20
2018-06-01T08:57:32.784Z,77.50
2018-06-01T09:00:00.294Z,76.20
2018-06-01T09:02:27.830Z,77.60
2018-06-01T09:04:56.139Z,75.60
2018-06-01T09:07:23.667Z,75.60
2018-06-01T09:09:51.214Z,77.30
2018-06-01T09:12:18.729Z,77.00
2018-06-01T09:14:46.244Z,76.10
2018-06-01T09:17:13.788Z,75.90
2018-06-01T09:19:41.321Z,76.20
2018-06-01T09:22:08.875Z,77.00
2018-06-01T09:24:37.169Z,76.60
2018-06-01T09:27:04.715Z,76.50
2018-06-01T09:29:33.012Z,76.70
2018-06-01T09:32:00.578Z,76.60
2018-06-01T09:34:28.299Z,75.20
2018-06-01T09:36:55.770Z,75.20
2018-06-01T09:39:23.308Z,76.80
2018-06-01T09:41:50.826Z,75.50
2018-06-01T09:44:18.339Z,75.80
2018-06-01T09:46:45.885Z,75.50
2018-06-01T09:49:13.373Z,75.70
2018-06-01T09:51:40.896Z,75.40
2018-06-01T09:54:08.412Z,75.10
2018-06-01T09:56:35.947Z,76.10
2018-06-01T09:59:03.460Z,76.80
2018-06-01T10:01:31.745Z,74.90
2018-06-01T10:04:00.041Z,74.80
2018-06-01T10:06:27.551Z,74.80
2018-06-01T10:08:55.096Z,75.90
2018-06-01T10:11:22.739Z,75.20
2018-06-01T10:13:50.316Z,74.30
2018-06-01T10:16:17.826Z,77.70
2018-06-01T10:18:45.327Z,75.70
2018-06-01T10:21:12.850Z,75.20
2018-06-01T10:23:40.363Z,73.60
2018-06-01T10:26:07.889Z,75.10
2018-06-01T10:28:36.197Z,75.00
2018-06-01T10:31:03.771Z,75.00
2018-06-01T10:33:31.280Z,73.50
2018-06-01T10:35:58.804Z,74.30
2018-06-01T10:38:26.323Z,76.50
2018-06-01T10:40:54.605Z,76.50
2018-06-01T10:43:22.902Z,74.60
2018-06-01T10:45:51.196Z,74.60
2018-06-01T10:48:18.732Z,74.60
2018-06-01T10:50:47.011Z,74.60
2018-06-01T10:53:15.426Z,76.00
2018-06-01T10:55:42.932Z,76.00
2018-06-01T10:58:10.442Z,75.70
2018-06-01T11:00:37.964Z,73.00
2018-06-01T11:03:05.496Z,73.50
2018-06-01T11:05:33.027Z,72.80
2018-06-01T11:08:00.574Z,73.90
2018-06-01T11:10:28.180Z,73.90
2018-06-01T11:12:55.711Z,74.90
2018-06-01T11:15:23.987Z,74.60
2018-06-01T11:17:52.302Z,76.40
2018-06-01T11:20:19.818Z,76.50
2018-06-01T11:22:47.363Z,74.80
2018-06-01T11:25:14.895Z,73.10
2018-06-01T11:27:42.459Z,72.90
2018-06-01T11:30:09.999Z,74.20
2018-06-01T11:32:38.306Z,72.80
2018-06-01T11:35:05.831Z,72.70
2018-06-01T11:37:34.136Z,72.20
2018-06-01T11:40:01.705Z,72.20
2018-06-01T11:42:29.205Z,73.50
2018-06-01T11:44:56.737Z,72.70
2018-06-01T11:47:24.267Z,72.20
2018-06-01T11:49:51.866Z,71.00
2018-06-01T11:52:19.368Z,69.40
2018-06-01T11:54:46.894Z,70.80
2018-06-01T11:57:14.408Z,71.50
2018-06-01T11:59:41.936Z,72.40
2018-06-01T12:02:09.446Z,71.90
2018-06-01T12:04:37.868Z,68.90
2018-06-01T12:07:05.371Z,68.80
2018-06-01T12:09:32.896Z,70.70
2018-06-01T12:12:00.432Z,72.00
2018-06-01T12:14:28.726Z,71.20
2018-06-01T12:16:57.020Z,70.90
2018-06-01T12:19:24.535Z,71.00
2018-06-01T12:21:52.048Z,70.90
2018-06-01T12:24:19.592Z,69.30
2018-06-01T12:26:47.860Z,69.20
2018-06-01T12:29:16.236Z,70.00
2018-06-01T12:31:43.780Z,70.00
2018-06-01T12:34:11.406Z,69.00
2018-06-01T12:36:38.947Z,71.90
2018-06-01T12:39:07.252Z,70.90
2018-06-01T12:41:34.800Z,70.90
2018-06-01T12:44:03.073Z,69.40
2018-06-01T12:46:31.378Z,69.40
2018-06-01T12:48:58.881Z,69.40
2018-06-01T12:51:26.387Z,68.10
2018-06-01T12:53:54.798Z,68.90
2018-06-01T12:56:22.309Z,68.90
2018-06-01T12:58:49.919Z,67.90
2018-06-01T13:01:17.455Z,68.60
2018-06-01T13:03:45.868Z,68.70
2018-06-01T13:06:13.406Z,68.60
2018-06-01T13:08:41.813Z,68.60
2018-06-01T13:11:09.350Z,68.60
2018-06-01T13:13:37.629Z,66.80
2018-06-01T13:16:05.964Z,66.40
2018-06-01T13:18:33.480Z,66.50
2018-06-01T13:21:01.784Z,66.30
2018-06-01T13:23:29.344Z,66.30
2018-06-01T13:25:56.853Z,66.00
2018-06-01T13:28:24.480Z,65.70
2018-06-01T13:30:52.030Z,67.20
2018-06-01T13:33:19.580Z,64.50
2018-06-01T13:35:47.866Z,64.10
2018-06-01T13:38:16.145Z,64.80
2018-06-01T13:40:44.447Z,66.00
2018-06-01T13:43:12.003Z,66.00
2018-06-01T13:45:39.584Z,65.60
2018-06-01T13:48:07.128Z,64.40
2018-06-01T13:50:34.673Z,64.70
2018-06-01T13:53:02.963Z,65.30
2018-06-01T13:55:31.270Z,65.70
2018-06-01T13:57:58.837Z,65.60
2018-06-01T14:00:26.406Z,66.40
2018-06-01T14:02:53.932Z,67.00
2018-06-01T14:05:22.221Z,64.80
2018-06-01T14:07:50.535Z,64.20
2018-06-01T14:10:18.048Z,64.10
2018-06-01T14:12:45.591Z,64.80
2018-06-01T14:15:13.105Z,63.70
2018-06-01T14:17:40.622Z,64.90
2018-06-01T14:22:42.210Z,63.40
2018-06-01T14:25:09.824Z,63.80
2018-06-01T14:27:37.390Z,62.50
2018-06-01T14:30:05.054Z,62.00
2018-06-01T14:32:32.567Z,61.10
2018-06-01T14:35:00.126Z,61.00
2018-06-01T14:37:27.627Z,62.20
2018-06-01T14:39:55.926Z,61.60
2018-06-01T14:42:23.480Z,62.10
2018-06-01T14:44:51.004Z,62.70
2018-06-01T14:47:18.541Z,61.50
2018-06-01T14:49:46.060Z,61.70
2018-06-01T14:52:14.468Z,62.10
2018-06-01T14:54:42.029Z,62.10
2018-06-01T14:57:09.550Z,63.60
2018-06-01T14:59:37.062Z,63.70
2018-06-01T15:02:04.601Z,63.90
2018-06-01T15:04:33.008Z,64.90
2018-06-01T15:07:00.515Z,64.90
2018-06-01T15:09:28.050Z,63.80
2018-06-01T15:11:55.605Z,63.90
2018-06-01T15:14:23.134Z,63.90
2018-06-01T15:16:51.544Z,64.10
2018-06-01T15:19:19.049Z,63.60
2018-06-01T15:21:46.576Z,64.00
2018-06-01T15:24:14.083Z,63.20
2018-06-01T15:26:41.596Z,64.00
2018-06-01T15:29:09.120Z,64.10
2018-06-01T15:31:37.421Z,65.00
2018-06-01T15:34:04.955Z,64.90
2018-06-01T15:36:32.571Z,64.20
2018-06-01T15:39:00.138Z,64.70
2018-06-01T15:41:27.654Z,65.20
2018-06-01T15:43:55.192Z,64.40
2018-06-01T15:46:22.702Z,64.80
2018-06-01T15:48:51.009Z,64.20
2018-06-01T15:51:18.573Z,64.10
2018-06-01T15:53:46.083Z,64.50
2018-06-01T15:56:13.622Z,65.60
2018-06-01T15:58:41.180Z,65.50
2018-06-01T16:01:09.445Z,66.40
2018-06-01T16:03:36.984Z,66.40
2018-06-01T16:06:05.394Z,66.10
2018-06-01T16:08:32.904Z,66.00
2018-06-01T16:11:01.956Z,66.30
2018-06-01T16:13:29.519Z,66.30
2018-06-01T16:15:57.041Z,66.60
2018-06-01T16:18:25.363Z,67.10
2018-06-01T16:20:52.875Z,66.60
2018-06-01T16:23:20.424Z,66.60
2018-06-01T16:25:47.938Z,66.40
2018-06-01T16:28:16.238Z,65.10
2018-06-01T16:30:43.759Z,65.10
2018-06-01T16:33:11.278Z,65.10
2018-06-01T16:35:38.831Z,63.40
2018-06-01T16:38:06.393Z,65.00
2018-06-01T16:40:33.920Z,65.40
2018-06-01T16:43:01.525Z,64.50
2018-06-01T16:45:29.052Z,65.10
2018-06-01T16:47:57.385Z,65.10
2018-06-01T16:50:24.932Z,65.10
2018-06-01T16:52:52.464Z,65.10
2018-06-01T16:55:20.740Z,64.90
2018-06-01T16:57:48.279Z,64.90
2018-06-01T17:00:15.784Z,65.50
2018-06-01T17:02:44.084Z,66.70
2018-06-01T17:05:11.593Z,66.70
2018-06-01T17:07:39.122Z,65.90
2018-06-01T17:10:06.636Z,66.00
2018-06-01T17:12:34.942Z,66.20
2018-06-01T17:15:02.467Z,66.10
2018-06-01T17:17:29.997Z,65.00
2018-06-01T17:19:57.529Z,64.60
2018-06-01T17:22:25.809Z,65.20
2018-06-01T17:24:54.105Z,65.80
2018-06-01T17:27:21.625Z,65.80
2018-06-01T17:29:49.155Z,66.40
2018-06-01T17:32:16.674Z,67.10
2018-06-01T17:34:44.986Z,66.00
2018-06-01T17:37:12.514Z,65.90
2018-06-01T17:39:40.832Z,66.40
2018-06-01T17:42:08.344Z,66.40
2018-06-01T17:44:35.853Z,65.00
2018-06-01T17:47:03.372Z,64.80
2018-06-01T17:49:31.701Z,65.10
2018-06-01T17:51:59.236Z,65.10
2018-06-01T17:54:27.546Z,66.00
2018-06-01T17:56:55.086Z,65.90
2018-06-01T17:59:23.401Z,67.40
2018-06-01T18:01:50.971Z,67.40
2018-06-01T18:04:18.524Z,66.90
2018-06-01T18:06:46.093Z,67.40
2018-06-01T18:09:14.367Z,66.90
2018-06-01T18:11:42.145Z,66.80
2018-06-01T18:14:09.664Z,67.60
2018-06-01T18:16:37.209Z,68.40
2018-06-01T18:19:06.366Z,68.60
2018-06-01T18:21:34.034Z,68.50
2018-06-01T18:24:01.610Z,68.00
2018-06-01T18:26:29.192Z,68.80
2018-06-01T18:28:56.831Z,68.60
2018-06-01T18:31:24.348Z,69.10
2018-06-01T18:33:51.864Z,68.00
2018-06-01T18:36:20.240Z,68.20
2018-06-01T18:38:47.814Z,68.40
2018-06-01T18:41:15.394Z,68.80
2018-06-01T18:43:43.036Z,69.70
2018-06-01T18:46:10.588Z,68.70
2018-06-01T18:48:38.128Z,70.10
2018-06-01T18:51:06.411Z,70.40
2018-06-01T18:53:34.743Z,70.30
2018-06-01T18:56:03.060Z,70.30
2018-06-01T18:58:31.390Z,70.50
2018-06-01T19:00:58.972Z,70.50
2018-06-01T19:03:26.543Z,70.70
2018-06-01T19:05:54.118Z,71.10
2018-06-01T19:08:21.720Z,70.90
2018-06-01T19:10:50.801Z,70.70
2018-06-01T19:13:18.723Z,70.80
2018-06-01T19:15:46.339Z,71.40
2018-06-01T19:18:13.938Z,72.40
2018-06-01T19:20:41.478Z,73.40
2018-06-01T19:23:09.815Z,74.70
2018-06-01T19:25:37.339Z,74.60
2018-06-01T19:28:05.650Z,77.70
2018-06-01T19:30:33.219Z,77.70
2018-06-01T19:33:00.804Z,77.10
2018-06-01T19:35:28.437Z,78.60
2018-06-01T19:37:55.998Z,78.10
2018-06-01T19:40:23.668Z,82.00
2018-06-01T19:42:51.220Z,82.30
2018-06-01T19:45:19.520Z,81.90
2018-06-01T19:47:47.928Z,81.90
2018-06-01T19:50:15.515Z,83.10
2018-06-01T19:52:43.139Z,84.20
2018-06-01T19:55:10.695Z,84.90
2018-06-01T19:57:38.274Z,85.90
2018-06-01T20:00:05.838Z,85.20
2018-06-01T20:02:33.444Z,85.50
2018-06-01T20:05:01.055Z,85.70
2018-06-01T20:07:28.724Z,86.40
2018-06-01T20:09:56.323Z,86.20
2018-06-01T20:12:23.956Z,85.80
2018-06-01T20:14:51.530Z,86.10
2018-06-01T20:17:19.191Z,85.20
2018-06-01T20:19:46.753Z,85.00
2018-06-01T20:22:14.336Z,86.40
2018-06-01T20:24:41.904Z,87.00
2018-06-01T20:27:09.474Z,87.00
2018-06-01T20:29:37.109Z,88.10
2018-06-01T20:32:04.736Z,87.30
2018-06-01T20:34:33.127Z,87.00
2018-06-01T20:37:01.457Z,87.10
2018-06-01T20:39:29.025Z,87.10
2018-06-01T20:41:56.672Z,87.60
2018-06-01T20:44:24.496Z,87.70
2018-06-01T20:46:52.857Z,87.80
2018-06-01T20:49:20.444Z,87.80
2018-06-01T20:51:47.986Z,88.10
2018-06-01T20:54:15.620Z,88.60
2018-06-01T20:56:43.227Z,88.20
2018-06-01T20:59:10.776Z,88.50
2018-06-01T21:01:38.328Z,88.70
2018-06-01T21:04:05.918Z,89.00
2018-06-01T21:06:34.131Z,88.70
2018-06-01T21:09:02.451Z,88.40
2018-06-01T21:11:30.000Z,88.30
2018-06-01T21:13:57.572Z,88.10
2018-06-01T21:16:25.235Z,88.40
2018-06-01T21:18:52.769Z,89.70
2018-06-01T21:21:20.331Z,89.20
2018-06-01T21:23:48.752Z,88.80
2018-06-01T21:26:16.411Z,88.80
2018-06-01T21:28:43.967Z,88.40
2018-06-01T21:31:11.487Z,88.10
2018-06-01T21:33:39.046Z,88.10
2018-06-01T21:36:06.595Z,88.00
2018-06-01T21:38:34.145Z,88.00
2018-06-01T21:41:01.804Z,88.00
2018-06-01T21:43:29.364Z,88.00
2018-06-01T21:45:56.920Z,87.90
2018-06-01T21:48:24.444Z,88.00
2018-06-01T21:50:52.026Z,89.00
2018-06-01T21:53:20.337Z,90.00
2018-06-01T21:55:47.912Z,89.90
2018-06-01T21:58:15.423Z,89.70
2018-06-01T22:00:42.983Z,88.70
2018-06-01T22:03:10.512Z,89.00
2018-06-01T22:05:38.030Z,88.40
2018-06-01T22:08:06.331Z,88.50
2018-06-01T22:10:33.857Z,88.20
2018-06-01T22:13:01.388Z,88.30
2018-06-01T22:15:28.913Z,88.20
2018-06-01T22:17:57.219Z,88.40
2018-06-01T22:20:24.781Z,88.40
2018-06-01T22:22:52.344Z,88.40
2018-06-01T22:25:19.867Z,88.40
2018-06-01T22:27:47.411Z,88.50
2018-06-01T22:30:14.916Z,88.80
2018-06-01T22:32:43.196Z,90.10
2018-06-01T22:35:11.505Z,90.20
2018-06-01T22:37:39.018Z,90.20
2018-06-01T22:40:06.540Z,90.40
2018-06-01T22:42:34.095Z,90.70
2018-06-01T22:45:01.640Z,90.40
2018-06-01T22:47:29.162Z,90.60
2018-06-01T22:49:56.782Z,90.70
2018-06-01T22:52:24.330Z,90.30
2018-06-01T22:54:52.629Z,90.30
2018-06-01T22:57:20.199Z,90.30
2018-06-01T22:59:47.714Z,90.30
2018-06-01T23:02:15.239Z,90.30
2018-06-01T23:04:42.783Z,90.30
2018-06-01T23:07:10.310Z,90.20
2018-06-01T23:09:38.072Z,90.40
2018-06-01T23:12:05.577Z,90.50
2018-06-01T23:14:33.098Z,90.40
2018-06-01T23:17:00.714Z,90.60
2018-06-01T23:19:28.281Z,90.40
2018-06-01T23:21:55.799Z,90.60
2018-06-01T23:24:23.403Z,90.50
2018-06-01T23:26:50.919Z,90.80
2018-06-01T23:29:18.460Z,90.50
2018-06-01T23:31:45.967Z,90.40
2018-06-01T23:34:14.245Z,90.40
2018-06-01T23:36:42.532Z,90.40
2018-06-01T23:39:10.823Z,90.40
2018-06-01T23:41:38.403Z,90.40
2018-06-01T23:44:05.903Z,89.70
2018-06-01T23:46:33.415Z,90.10
2018-06-01T23:49:00.933Z,90.50
2018-06-01T23:51:28.493Z,90.30
2018-06-01T23:53:56.838Z,90.20
2018-06-01T23:56:24.346Z,90.10
2018-06-01T23:58:51.970Z,89.70
